Tuesday, May 24, 2016
23:29 UTC
  |  Log In   |  Register Free
Airport Search:

Olympia Regional Airport
(KOLM)

Airport information sponsored by:
Glacier Jet Center at Olympia Regional (KOLM), Olympia, WA
FAA data valid effective Mar 31 2016 - May 26 2016 (unless otherwise noted).

 
 
 
 
 
 
 
 
 
 
 
 
 
 
Current Aviation Weather for KOLM

Weather Summary


The most recent METAR observation for OLM was updated at: 12:54 UTC
METAR for KOLM is not available. Closest METAR is for KGRF
KOLM  (most recent observation was updatred at 24:22 UTC)
242254Z 32005KT 10SM BKN043 OVC065 18/08 A2999 RMK AO2 SLP156 T01780083

KGRF  (14.7 nm SW)   (most recent observation was updated at 24:22 UTC)
242258Z AUTO 25005KT 10SM FEW039 OVC075 19/10 A2999 RMK AO2 SLP159 T01900104 $

KCLS  (17.9 nm NE)   (most recent observation was updated at 24:23 UTC)
242315Z AUTO 24005KT 10SM SCT047 BKN055 BKN070 22/10 A3000 RMK AO2

TAF for KOLM is not available.
KOLM
242320Z 2500/2524 30005KT P6SM BKN040 BKN070 FM251000 20006KT P6SM BKN020 OVC040 FM252000 23008KT P6SM SCT025 BKN040

KGRF  (14.7 nm SW)   (most recent observation was updatred at 24:21 UTC)
242102Z 2421/2603 30009KT 9999 BKN040 QNH2988INS BECMG 2504/2505 25009KT 9999 BKN020 QNH2992INS BECMG 2506/2507 25009KT 9999 BKN015 QNH2992INS BECMG 2511/2512 20010KT 9999 BKN005 QNH2996INS BECMG 2516/2517 23010G15KT 9999 FEW040 BKN060 QNH2999INS TX20/2423Z TN10/2512Z


KTCM  (20.2 nm SW)   (most recent observation was updatred at 24:21 UTC)
242102Z 2421/2603 30009KT 9999 BKN040 QNH2988INS BECMG 2504/2505 25009KT 9999 BKN020 QNH2992INS BECMG 2506/2507 25009KT 9999 BKN015 QNH2992INS BECMG 2511/2512 20010KT 9999 BKN005 QNH2996INS BECMG 2516/2517 23010G15KT 9999 FEW040 BKN060 QNH2999INS TX20/2423Z TN10/2512Z
GlobalAir.com is loading additional information.
 Current Weather at OLM
66.0 F° (18.9 C°)

West winds at 6.9 mph
Pressure:
30.00 in
Humidity:
49%
Wind:
West at 6.9 mph
Dew Point:
46.0 F° (7.8 C°)
Visibility:
10.00 mi
OLM NOAA Radar




Find All Airport Services Find A Hotel Find A Rental Car Find A Golf Course Find A Restaurant $100 Hamburger



Airport Weather Forecast for KOLM

Translated METAR for KOLM (2254 UTC)
METAR:
KOLM 242254Z 32005KT 10SM BKN043 OVC065 18/08 A2999 RMK AO2 SLP156 T01780083
Conditions at:
KOLM (Olympia Rgnl, WA) observed 2254 UTC 24 May 2016
Temperature:
18°C (64.4°F)
Dewpoint:
8°C (46.4°F) [RH = 52]
Pressure:
29.99 inches Hg (1015.6 mb)
pressure at sea level is 156 in Hg
Winds:
from the NW (320 degrees) at 5.8 mph (5 knots: 2.6 m/s)
Visibility:
10 mile(s)
Ceiling:
4,300 feet AGL
Clouds:
Broken Cloud Cover at 4,300 feet AGL
Overcast Skies at 6,500 feet AGL
Remarks:
site is automated and HAS a precipitation sensor

Translated TAF for KOLM (Olympia Rgnl, WA) (2320 UTC)
TAF text:
KOLM 242320Z 2500/2524 30005KT P6SM BKN040 BKN070
Forecast period:
Wednesday May 25 2016 00:00 UTC - Wednesday May 25 2016 24:00 UTC
Forecast type:
FROM: standard forecast or significant change
Winds:
from the WNW (300 degrees) at 5.8 mph (5 knots: 2.6 m/s)
Visibility:
6 or more mile(s) (9.7+ km)
Ceiling:
4,000 feet AGL
Clouds:
Broken Cloud Cover at 4,000 feet AGL
Broken Cloud Cover at 7,000 feet AGL
Weather:
no significant weather observed at this time
TAF text:
FM251000 20006KT P6SM BKN020 OVC040
Forecast period:
Wednesday May 25 2016 10:00 UTC - Wednesday May 25 2016 20:00 UTC
Forecast type:
FROM: standard forecast or significant change
Winds:
from the SSW (200 degrees) at 6.9 mph (6 knots: 3.1 m/s)
Visibility:
6 or more mile(s) (9.7+ km)
Ceiling:
2,000 feet AGL
Clouds:
Broken Cloud Cover at 2,000 feet AGL
Overcast Skies at 4,000 feet AGL
Weather:
no significant weather observed at this time
TAF text:
FM252000 23008KT P6SM SCT025 BKN040
Forecast period:
Wednesday May 25 2016 20:00 UTC - Wednesday May 25 2016 24:00 UTC
Forecast type:
FROM: standard forecast or significant change
Winds:
from the SW (230 degrees) at 9.2 mph (8 knots: 4.1 m/s)
Visibility:
6 or more mile(s) (9.7+ km)
Ceiling:
4,000 feet AGL
Clouds:
Scattered Clouds at 2,500 feet AGL
Broken Cloud Cover at 4,000 feet AGL
Weather:
no significant weather observed at this time
FBO's on the Field
FBO Company Facility Photos Services Transportation Aviation Fuel Prices: Prices include tax
Catering Weather Repair Courtesy Rental Type 100LL JetA JetA+ MOGAS 8087
 
Glacier Jet Center

Glacier Jet Center logo
Currently rated 5 by 1 person
FS:
Last Updated: May-24
Login to update fuel prices
SS:
Contact Glacier Jet CenterMore FBO Information
 
Jorgensen Air Service

Jorgensen Air Service logo
Currently rated 5 by 3 people
FS:
Last Updated: May-16
Login to update fuel prices
SS:
Contact Jorgensen Air ServiceMore FBO Information
 
Add another FBO Facility Photos Catering Weather Repair Courtesy Rental Type 100LL JetA JetA+ MOGAS 8087
Services Transportation Aviation Fuel Prices: Prices include tax


model-print
model-print
model-print
model-print